sensor_id;sensor_type;location;lat;lon;timestamp;pressure;altitude;pressure_sealevel;temperature;humidity
43147;BME280;28752;48.266;7.402;2022-10-16T00:01:07;99233.16;;;16.03;100.00
43147;BME280;28752;48.266;7.402;2022-10-16T00:03:33;99233.72;;;15.98;100.00
43147;BME280;28752;48.266;7.402;2022-10-16T00:06:00;99239.97;;;16.06;100.00
43147;BME280;28752;48.266;7.402;2022-10-16T00:08:26;99236.84;;;16.02;100.00
43147;BME280;28752;48.266;7.402;2022-10-16T00:10:51;99228.47;;;16.05;100.00
43147;BME280;28752;48.266;7.402;2022-10-16T00:13:17;99227.00;;;16.03;100.00
43147;BME280;28752;48.266;7.402;2022-10-16T00:15:43;99226.63;;;16.06;100.00
43147;BME280;28752;48.266;7.402;2022-10-16T00:18:09;99221.28;;;16.06;100.00
43147;BME280;28752;48.266;7.402;2022-10-16T00:20:35;99231.53;;;16.02;100.00
43147;BME280;28752;48.266;7.402;2022-10-16T00:23:02;99235.31;;;15.93;100.00
43147;BME280;28752;48.266;7.402;2022-10-16T00:25:28;99235.56;;;15.98;100.00
43147;BME280;28752;48.266;7.402;2022-10-16T00:27:54;99234.44;;;15.92;100.00
43147;BME280;28752;48.266;7.402;2022-10-16T00:30:19;99239.25;;;15.97;100.00
43147;BME280;28752;48.266;7.402;2022-10-16T00:32:45;99236.19;;;16.00;100.00
43147;BME280;28752;48.266;7.402;2022-10-16T00:35:11;99235.81;;;16.03;100.00
43147;BME280;28752;48.266;7.402;2022-10-16T00:37:36;99238.50;;;16.03;100.00
43147;BME280;28752;48.266;7.402;2022-10-16T00:40:02;99244.88;;;16.02;100.00
43147;BME280;28752;48.266;7.402;2022-10-16T00:42:28;99243.75;;;15.96;100.00
43147;BME280;28752;48.266;7.402;2022-10-16T00:44:55;99251.94;;;15.95;100.00
43147;BME280;28752;48.266;7.402;2022-10-16T00:47:37;99253.81;;;15.94;100.00
43147;BME280;28752;48.266;7.402;2022-10-16T00:50:16;99251.13;;;15.94;100.00
43147;BME280;28752;48.266;7.402;2022-10-16T00:52:46;99254.81;;;15.93;100.00
43147;BME280;28752;48.266;7.402;2022-10-16T00:55:12;99252.31;;;15.92;100.00
43147;BME280;28752;48.266;7.402;2022-10-16T00:57:38;99241.38;;;15.87;100.00
43147;BME280;28752;48.266;7.402;2022-10-16T01:00:05;99247.72;;;15.86;100.00
43147;BME280;28752;48.266;7.402;2022-10-16T01:02:30;99255.47;;;15.80;100.00
43147;BME280;28752;48.266;7.402;2022-10-16T01:04:56;99260.16;;;15.78;100.00
43147;BME280;28752;48.266;7.402;2022-10-16T01:07:43;99258.16;;;15.80;100.00
43147;BME280;28752;48.266;7.402;2022-10-16T01:10:38;99256.28;;;15.81;100.00
43147;BME280;28752;48.266;7.402;2022-10-16T01:13:07;99244.19;;;15.70;100.00
43147;BME280;28752;48.266;7.402;2022-10-16T01:15:42;99252.47;;;15.75;100.00
43147;BME280;28752;48.266;7.402;2022-10-16T01:18:16;99252.84;;;15.72;100.00
43147;BME280;28752;48.266;7.402;2022-10-16T01:31:51;99235.00;;;15.58;100.00
43147;BME280;28752;48.266;7.402;2022-10-16T01:34:28;99239.47;;;15.57;100.00
43147;BME280;28752;48.266;7.402;2022-10-16T01:37:11;99236.44;;;15.60;100.00
43147;BME280;28752;48.266;7.402;2022-10-16T01:39:39;99234.16;;;15.57;100.00
43147;BME280;28752;48.266;7.402;2022-10-16T01:42:20;99247.50;;;15.57;100.00
43147;BME280;28752;48.266;7.402;2022-10-16T01:44:49;99236.56;;;15.52;100.00
43147;BME280;28752;48.266;7.402;2022-10-16T01:47:17;99248.88;;;15.53;100.00
43147;BME280;28752;48.266;7.402;2022-10-16T01:49:45;99244.91;;;15.49;100.00
43147;BME280;28752;48.266;7.402;2022-10-16T01:52:14;99247.78;;;15.48;100.00
43147;BME280;28752;48.266;7.402;2022-10-16T01:54:43;99245.91;;;15.48;100.00
43147;BME280;28752;48.266;7.402;2022-10-16T01:57:12;99244.78;;;15.42;100.00
43147;BME280;28752;48.266;7.402;2022-10-16T01:59:43;99248.31;;;15.43;100.00
43147;BME280;28752;48.266;7.402;2022-10-16T02:02:10;99251.16;;;15.41;100.00
43147;BME280;28752;48.266;7.402;2022-10-16T02:04:42;99252.25;;;15.32;100.00
43147;BME280;28752;48.266;7.402;2022-10-16T02:07:09;99256.50;;;15.41;100.00
43147;BME280;28752;48.266;7.402;2022-10-16T02:09:36;99248.88;;;15.38;100.00
43147;BME280;28752;48.266;7.402;2022-10-16T02:12:10;99245.66;;;15.43;100.00
43147;BME280;28752;48.266;7.402;2022-10-16T02:14:39;99251.16;;;15.41;100.00
43147;BME280;28752;48.266;7.402;2022-10-16T02:17:16;99258.03;;;15.36;100.00
43147;BME280;28752;48.266;7.402;2022-10-16T02:19:44;99259.72;;;15.37;100.00
43147;BME280;28752;48.266;7.402;2022-10-16T02:22:22;99260.53;;;15.37;100.00
43147;BME280;28752;48.266;7.402;2022-10-16T02:27:44;99246.06;;;15.32;100.00
43147;BME280;28752;48.266;7.402;2022-10-16T02:32:51;99239.47;;;15.27;100.00
43147;BME280;28752;48.266;7.402;2022-10-16T02:35:20;99245.63;;;15.28;100.00
43147;BME280;28752;48.266;7.402;2022-10-16T02:37:48;99249.28;;;15.27;100.00
43147;BME280;28752;48.266;7.402;2022-10-16T02:40:15;99250.94;;;15.28;100.00
43147;BME280;28752;48.266;7.402;2022-10-16T02:42:40;99257.28;;;15.27;100.00
43147;BME280;28752;48.266;7.402;2022-10-16T02:45:08;99255.91;;;15.31;100.00
43147;BME280;28752;48.266;7.402;2022-10-16T02:47:34;99254.63;;;15.27;100.00
43147;BME280;28752;48.266;7.402;2022-10-16T02:50:00;99242.59;;;15.31;100.00
43147;BME280;28752;48.266;7.402;2022-10-16T02:52:25;99243.59;;;15.30;100.00
43147;BME280;28752;48.266;7.402;2022-10-16T02:54:51;99247.75;;;15.33;100.00
43147;BME280;28752;48.266;7.402;2022-10-16T02:57:16;99243.75;;;15.28;100.00
43147;BME280;28752;48.266;7.402;2022-10-16T02:59:42;99240.91;;;15.30;100.00
43147;BME280;28752;48.266;7.402;2022-10-16T03:02:07;99241.41;;;15.34;100.00
43147;BME280;28752;48.266;7.402;2022-10-16T03:04:33;99243.88;;;15.35;100.00
43147;BME280;28752;48.266;7.402;2022-10-16T03:06:58;99248.09;;;15.30;100.00
43147;BME280;28752;48.266;7.402;2022-10-16T03:09:24;99243.94;;;15.27;100.00
43147;BME280;28752;48.266;7.402;2022-10-16T03:11:49;99240.47;;;15.26;100.00
43147;BME280;28752;48.266;7.402;2022-10-16T03:14:15;99244.97;;;15.26;100.00
43147;BME280;28752;48.266;7.402;2022-10-16T03:16:40;99243.84;;;15.20;100.00
43147;BME280;28752;48.266;7.402;2022-10-16T03:19:05;99250.69;;;15.23;100.00
43147;BME280;28752;48.266;7.402;2022-10-16T03:21:31;99261.53;;;15.21;100.00
43147;BME280;28752;48.266;7.402;2022-10-16T03:23:56;99253.41;;;15.15;100.00
43147;BME280;28752;48.266;7.402;2022-10-16T03:26:22;99262.56;;;15.12;100.00
43147;BME280;28752;48.266;7.402;2022-10-16T03:28:47;99249.91;;;15.14;100.00
43147;BME280;28752;48.266;7.402;2022-10-16T03:31:12;99254.25;;;14.92;100.00
43147;BME280;28752;48.266;7.402;2022-10-16T03:33:38;99265.75;;;14.92;100.00
43147;BME280;28752;48.266;7.402;2022-10-16T03:36:03;99263.44;;;14.89;100.00
43147;BME280;28752;48.266;7.402;2022-10-16T03:38:29;99261.94;;;14.87;100.00
43147;BME280;28752;48.266;7.402;2022-10-16T03:40:54;99259.09;;;14.88;100.00
43147;BME280;28752;48.266;7.402;2022-10-16T03:43:19;99256.44;;;14.88;100.00
43147;BME280;28752;48.266;7.402;2022-10-16T03:45:45;99257.94;;;14.91;100.00
43147;BME280;28752;48.266;7.402;2022-10-16T03:48:10;99245.97;;;14.87;100.00
43147;BME280;28752;48.266;7.402;2022-10-16T03:50:36;99265.63;;;14.86;100.00
43147;BME280;28752;48.266;7.402;2022-10-16T03:53:02;99260.53;;;14.76;100.00
43147;BME280;28752;48.266;7.402;2022-10-16T03:55:30;99255.66;;;14.80;100.00
43147;BME280;28752;48.266;7.402;2022-10-16T03:57:55;99250.50;;;14.78;100.00
43147;BME280;28752;48.266;7.402;2022-10-16T04:00:20;99247.06;;;14.69;100.00
43147;BME280;28752;48.266;7.402;2022-10-16T04:02:46;99258.50;;;14.78;100.00
43147;BME280;28752;48.266;7.402;2022-10-16T04:05:11;99259.84;;;14.74;100.00
43147;BME280;28752;48.266;7.402;2022-10-16T04:07:37;99244.22;;;14.71;100.00
43147;BME280;28752;48.266;7.402;2022-10-16T04:10:03;99254.25;;;14.69;100.00
43147;BME280;28752;48.266;7.402;2022-10-16T04:12:28;99248.38;;;14.73;100.00
43147;BME280;28752;48.266;7.402;2022-10-16T04:14:54;99253.88;;;14.72;100.00
43147;BME280;28752;48.266;7.402;2022-10-16T04:17:19;99252.94;;;14.65;100.00
43147;BME280;28752;48.266;7.402;2022-10-16T04:19:45;99269.75;;;14.65;100.00
43147;BME280;28752;48.266;7.402;2022-10-16T04:22:11;99266.75;;;14.68;100.00
43147;BME280;28752;48.266;7.402;2022-10-16T04:24:36;99276.91;;;14.65;100.00
43147;BME280;28752;48.266;7.402;2022-10-16T04:27:02;99267.44;;;14.62;100.00
43147;BME280;28752;48.266;7.402;2022-10-16T04:29:27;99277.25;;;14.62;100.00
43147;BME280;28752;48.266;7.402;2022-10-16T04:31:53;99276.94;;;14.56;100.00
43147;BME280;28752;48.266;7.402;2022-10-16T04:34:18;99287.78;;;14.55;100.00
43147;BME280;28752;48.266;7.402;2022-10-16T04:36:43;99282.78;;;14.52;100.00
43147;BME280;28752;48.266;7.402;2022-10-16T04:39:09;99290.78;;;14.52;100.00
43147;BME280;28752;48.266;7.402;2022-10-16T04:41:34;99278.88;;;14.39;100.00
43147;BME280;28752;48.266;7.402;2022-10-16T04:44:00;99303.44;;;14.50;100.00
43147;BME280;28752;48.266;7.402;2022-10-16T04:46:25;99290.00;;;14.43;100.00
43147;BME280;28752;48.266;7.402;2022-10-16T04:48:50;99294.50;;;14.43;100.00
43147;BME280;28752;48.266;7.402;2022-10-16T04:51:16;99287.31;;;14.43;100.00
43147;BME280;28752;48.266;7.402;2022-10-16T04:53:41;99292.00;;;14.41;100.00
43147;BME280;28752;48.266;7.402;2022-10-16T04:56:06;99281.69;;;14.38;100.00
43147;BME280;28752;48.266;7.402;2022-10-16T04:58:32;99295.84;;;14.38;100.00
43147;BME280;28752;48.266;7.402;2022-10-16T05:00:58;99315.13;;;14.40;100.00
43147;BME280;28752;48.266;7.402;2022-10-16T05:03:23;99297.34;;;14.41;100.00
43147;BME280;28752;48.266;7.402;2022-10-16T05:05:48;99299.31;;;14.39;100.00
43147;BME280;28752;48.266;7.402;2022-10-16T05:08:15;99304.47;;;14.40;100.00
43147;BME280;28752;48.266;7.402;2022-10-16T05:10:41;99299.81;;;14.43;100.00
43147;BME280;28752;48.266;7.402;2022-10-16T05:13:07;99310.47;;;14.43;100.00
43147;BME280;28752;48.266;7.402;2022-10-16T05:15:32;99312.13;;;14.44;100.00
43147;BME280;28752;48.266;7.402;2022-10-16T05:17:58;99317.28;;;14.45;100.00
43147;BME280;28752;48.266;7.402;2022-10-16T05:20:24;99320.63;;;14.47;100.00
43147;BME280;28752;48.266;7.402;2022-10-16T05:22:49;99314.97;;;14.42;100.00
43147;BME280;28752;48.266;7.402;2022-10-16T05:25:15;99322.94;;;14.42;100.00
43147;BME280;28752;48.266;7.402;2022-10-16T05:27:41;99316.91;;;14.48;100.00
43147;BME280;28752;48.266;7.402;2022-10-16T05:30:06;99301.47;;;14.44;100.00
43147;BME280;28752;48.266;7.402;2022-10-16T05:32:32;99323.28;;;14.47;100.00
43147;BME280;28752;48.266;7.402;2022-10-16T05:34:58;99315.28;;;14.47;100.00
43147;BME280;28752;48.266;7.402;2022-10-16T05:37:25;99311.25;;;14.51;100.00
43147;BME280;28752;48.266;7.402;2022-10-16T05:39:50;99298.28;;;14.48;100.00
43147;BME280;28752;48.266;7.402;2022-10-16T05:42:16;99310.25;;;14.52;100.00
43147;BME280;28752;48.266;7.402;2022-10-16T05:44:41;99305.41;;;14.56;100.00
43147;BME280;28752;48.266;7.402;2022-10-16T05:47:07;99309.44;;;14.52;100.00
43147;BME280;28752;48.266;7.402;2022-10-16T05:49:32;99300.94;;;14.48;100.00
43147;BME280;28752;48.266;7.402;2022-10-16T05:51:57;99302.31;;;14.44;100.00
43147;BME280;28752;48.266;7.402;2022-10-16T05:54:23;99295.19;;;14.36;100.00
43147;BME280;28752;48.266;7.402;2022-10-16T05:56:48;99314.84;;;14.35;100.00
43147;BME280;28752;48.266;7.402;2022-10-16T05:59:13;99306.88;;;14.27;100.00
43147;BME280;28752;48.266;7.402;2022-10-16T06:01:39;99327.16;;;14.36;100.00
43147;BME280;28752;48.266;7.402;2022-10-16T06:04:04;99325.44;;;14.44;100.00
43147;BME280;28752;48.266;7.402;2022-10-16T06:06:30;99327.22;;;14.51;100.00
43147;BME280;28752;48.266;7.402;2022-10-16T06:08:56;99331.91;;;14.57;100.00
43147;BME280;28752;48.266;7.402;2022-10-16T06:11:27;99336.38;;;14.65;100.00
43147;BME280;28752;48.266;7.402;2022-10-16T06:13:55;99345.31;;;14.72;100.00
43147;BME280;28752;48.266;7.402;2022-10-16T06:16:22;99337.84;;;14.68;100.00
43147;BME280;28752;48.266;7.402;2022-10-16T06:18:47;99347.72;;;14.59;100.00
43147;BME280;28752;48.266;7.402;2022-10-16T06:21:20;99347.22;;;14.64;100.00
43147;BME280;28752;48.266;7.402;2022-10-16T06:23:46;99349.00;;;14.71;100.00
43147;BME280;28752;48.266;7.402;2022-10-16T06:26:14;99354.44;;;14.78;100.00
43147;BME280;28752;48.266;7.402;2022-10-16T06:28:40;99357.22;;;14.85;100.00
43147;BME280;28752;48.266;7.402;2022-10-16T06:31:07;99350.72;;;14.87;100.00
43147;BME280;28752;48.266;7.402;2022-10-16T06:33:32;99371.97;;;15.04;100.00
43147;BME280;28752;48.266;7.402;2022-10-16T06:36:06;99372.56;;;15.14;100.00
43147;BME280;28752;48.266;7.402;2022-10-16T06:38:32;99364.88;;;15.19;100.00
43147;BME280;28752;48.266;7.402;2022-10-16T06:40:58;99375.06;;;15.16;100.00
43147;BME280;28752;48.266;7.402;2022-10-16T06:43:24;99375.88;;;15.16;100.00
43147;BME280;28752;48.266;7.402;2022-10-16T06:45:53;99371.03;;;15.20;100.00
43147;BME280;28752;48.266;7.402;2022-10-16T06:48:19;99380.69;;;15.21;100.00
43147;BME280;28752;48.266;7.402;2022-10-16T06:51:00;99374.72;;;15.19;100.00
43147;BME280;28752;48.266;7.402;2022-10-16T06:53:28;99378.53;;;15.24;100.00
43147;BME280;28752;48.266;7.402;2022-10-16T06:55:55;99383.84;;;15.24;100.00
43147;BME280;28752;48.266;7.402;2022-10-16T06:58:21;99382.34;;;15.22;100.00
43147;BME280;28752;48.266;7.402;2022-10-16T07:00:46;99395.50;;;15.23;100.00
43147;BME280;28752;48.266;7.402;2022-10-16T07:03:13;99399.19;;;15.22;100.00
43147;BME280;28752;48.266;7.402;2022-10-16T07:05:41;99387.69;;;15.22;100.00
43147;BME280;28752;48.266;7.402;2022-10-16T07:08:07;99403.63;;;15.30;100.00
43147;BME280;28752;48.266;7.402;2022-10-16T07:10:34;99409.31;;;15.27;100.00
43147;BME280;28752;48.266;7.402;2022-10-16T07:12:59;99408.59;;;15.33;100.00
43147;BME280;28752;48.266;7.402;2022-10-16T07:15:25;99399.97;;;15.31;100.00
43147;BME280;28752;48.266;7.402;2022-10-16T07:17:51;99409.56;;;15.40;100.00
43147;BME280;28752;48.266;7.402;2022-10-16T07:20:16;99418.56;;;15.39;100.00
43147;BME280;28752;48.266;7.402;2022-10-16T07:22:41;99418.53;;;15.48;100.00
43147;BME280;28752;48.266;7.402;2022-10-16T07:25:07;99419.00;;;15.51;100.00
43147;BME280;28752;48.266;7.402;2022-10-16T07:27:33;99434.25;;;15.66;100.00
43147;BME280;28752;48.266;7.402;2022-10-16T07:29:58;99423.66;;;15.80;100.00
43147;BME280;28752;48.266;7.402;2022-10-16T07:32:23;99421.19;;;15.94;100.00
43147;BME280;28752;48.266;7.402;2022-10-16T07:34:51;99434.56;;;16.09;100.00
43147;BME280;28752;48.266;7.402;2022-10-16T07:37:16;99434.41;;;16.25;100.00
43147;BME280;28752;48.266;7.402;2022-10-16T07:39:41;99428.31;;;16.31;100.00
43147;BME280;28752;48.266;7.402;2022-10-16T07:42:07;99431.00;;;16.46;100.00
43147;BME280;28752;48.266;7.402;2022-10-16T07:44:32;99441.22;;;16.58;100.00
43147;BME280;28752;48.266;7.402;2022-10-16T07:46:58;99445.75;;;16.57;99.96
43147;BME280;28752;48.266;7.402;2022-10-16T07:49:24;99458.00;;;16.66;99.43
43147;BME280;28752;48.266;7.402;2022-10-16T07:51:49;99446.03;;;16.77;98.90
43147;BME280;28752;48.266;7.402;2022-10-16T07:54:15;99446.41;;;16.89;97.83
43147;BME280;28752;48.266;7.402;2022-10-16T07:56:40;99442.72;;;16.90;97.72
43147;BME280;28752;48.266;7.402;2022-10-16T07:59:05;99446.78;;;17.01;97.24
43147;BME280;28752;48.266;7.402;2022-10-16T08:01:31;99451.25;;;17.15;96.28
43147;BME280;28752;48.266;7.402;2022-10-16T08:03:56;99439.28;;;17.11;96.17
43147;BME280;28752;48.266;7.402;2022-10-16T08:06:22;99448.53;;;17.30;94.85
43147;BME280;28752;48.266;7.402;2022-10-16T08:08:47;99442.47;;;17.21;95.41
43147;BME280;28752;48.266;7.402;2022-10-16T08:11:13;99447.50;;;17.10;95.96
43147;BME280;28752;48.266;7.402;2022-10-16T08:13:40;99455.66;;;17.23;94.92
43147;BME280;28752;48.266;7.402;2022-10-16T08:16:05;99460.19;;;17.22;94.78
43147;BME280;28752;48.266;7.402;2022-10-16T08:18:36;99449.81;;;17.13;95.95
43147;BME280;28752;48.266;7.402;2022-10-16T08:21:02;99450.88;;;17.18;96.21
43147;BME280;28752;48.266;7.402;2022-10-16T08:23:28;99444.50;;;17.19;95.49
43147;BME280;28752;48.266;7.402;2022-10-16T08:25:55;99468.28;;;17.29;95.56
43147;BME280;28752;48.266;7.402;2022-10-16T08:28:22;99473.06;;;17.34;94.86
43147;BME280;28752;48.266;7.402;2022-10-16T08:30:48;99480.56;;;17.38;94.43
43147;BME280;28752;48.266;7.402;2022-10-16T08:33:14;99493.25;;;17.51;93.38
43147;BME280;28752;48.266;7.402;2022-10-16T08:35:39;99498.03;;;17.77;93.49
43147;BME280;28752;48.266;7.402;2022-10-16T08:38:05;99508.34;;;17.81;91.86
43147;BME280;28752;48.266;7.402;2022-10-16T08:40:33;99508.28;;;17.89;91.82
43147;BME280;28752;48.266;7.402;2022-10-16T08:48:46;99510.81;;;17.97;90.75
43147;BME280;28752;48.266;7.402;2022-10-16T08:51:19;99510.31;;;18.08;89.39
43147;BME280;28752;48.266;7.402;2022-10-16T08:56:17;99519.63;;;18.69;87.03
43147;BME280;28752;48.266;7.402;2022-10-16T08:58:44;99515.19;;;18.83;85.57
43147;BME280;28752;48.266;7.402;2022-10-16T09:01:13;99514.41;;;18.89;84.35
43147;BME280;28752;48.266;7.402;2022-10-16T09:06:47;99501.72;;;19.11;83.53
43147;BME280;28752;48.266;7.402;2022-10-16T09:20:13;99527.50;;;19.06;84.14
43147;BME280;28752;48.266;7.402;2022-10-16T09:22:40;99518.81;;;19.04;84.58
43147;BME280;28752;48.266;7.402;2022-10-16T09:25:14;99525.56;;;18.93;85.60
43147;BME280;28752;48.266;7.402;2022-10-16T09:27:42;99527.31;;;19.07;84.56
43147;BME280;28752;48.266;7.402;2022-10-16T09:30:28;99532.16;;;19.25;84.08
43147;BME280;28752;48.266;7.402;2022-10-16T09:32:54;99537.78;;;19.44;82.64
43147;BME280;28752;48.266;7.402;2022-10-16T09:35:31;99548.38;;;19.59;82.03
43147;BME280;28752;48.266;7.402;2022-10-16T09:37:57;99540.53;;;19.70;82.20
43147;BME280;28752;48.266;7.402;2022-10-16T09:40:31;99544.06;;;19.71;81.40
43147;BME280;28752;48.266;7.402;2022-10-16T09:43:03;99541.47;;;19.91;80.29
43147;BME280;28752;48.266;7.402;2022-10-16T09:45:32;99538.31;;;19.81;80.21
43147;BME280;28752;48.266;7.402;2022-10-16T09:47:58;99546.56;;;19.73;80.60
43147;BME280;28752;48.266;7.402;2022-10-16T09:50:27;99549.72;;;19.96;80.04
43147;BME280;28752;48.266;7.402;2022-10-16T09:53:11;99547.25;;;20.01;79.58
43147;BME280;28752;48.266;7.402;2022-10-16T09:55:47;99551.19;;;20.19;79.52
43147;BME280;28752;48.266;7.402;2022-10-16T09:58:13;99544.19;;;20.38;79.22
43147;BME280;28752;48.266;7.402;2022-10-16T10:00:41;99545.63;;;20.47;78.67
43147;BME280;28752;48.266;7.402;2022-10-16T10:03:10;99552.63;;;20.62;78.65
43147;BME280;28752;48.266;7.402;2022-10-16T10:05:39;99541.50;;;20.71;78.17
43147;BME280;28752;48.266;7.402;2022-10-16T10:08:05;99547.91;;;20.77;78.39
43147;BME280;28752;48.266;7.402;2022-10-16T10:10:41;99547.69;;;20.72;78.48
43147;BME280;28752;48.266;7.402;2022-10-16T10:13:21;99543.13;;;20.72;78.43
43147;BME280;28752;48.266;7.402;2022-10-16T10:15:47;99547.28;;;20.75;77.55
43147;BME280;28752;48.266;7.402;2022-10-16T10:18:21;99549.53;;;20.91;76.94
43147;BME280;28752;48.266;7.402;2022-10-16T10:20:58;99554.47;;;21.01;77.63
43147;BME280;28752;48.266;7.402;2022-10-16T10:23:25;99554.25;;;21.09;77.47
43147;BME280;28752;48.266;7.402;2022-10-16T10:25:56;99552.53;;;21.22;77.16
43147;BME280;28752;48.266;7.402;2022-10-16T10:34:16;99538.06;;;21.23;76.94
43147;BME280;28752;48.266;7.402;2022-10-16T10:36:53;99540.53;;;21.18;76.52
43147;BME280;28752;48.266;7.402;2022-10-16T10:39:38;99547.22;;;21.02;76.24
43147;BME280;28752;48.266;7.402;2022-10-16T10:47:47;99543.41;;;21.29;75.04
43147;BME280;28752;48.266;7.402;2022-10-16T10:50:30;99544.91;;;21.19;73.78
43147;BME280;28752;48.266;7.402;2022-10-16T10:55:56;99553.91;;;21.51;73.88
43147;BME280;28752;48.266;7.402;2022-10-16T11:01:44;99541.97;;;21.72;72.52
43147;BME280;28752;48.266;7.402;2022-10-16T11:06:50;99541.47;;;21.89;73.09
43147;BME280;28752;48.266;7.402;2022-10-16T11:09:24;99535.66;;;21.92;72.56
43147;BME280;28752;48.266;7.402;2022-10-16T11:14:54;99532.13;;;21.91;72.61
43147;BME280;28752;48.266;7.402;2022-10-16T11:20:19;99540.16;;;21.98;73.89
43147;BME280;28752;48.266;7.402;2022-10-16T11:22:50;99545.13;;;22.01;73.00
43147;BME280;28752;48.266;7.402;2022-10-16T11:28:03;99541.13;;;22.10;71.71
43147;BME280;28752;48.266;7.402;2022-10-16T11:30:39;99545.69;;;22.10;71.51
43147;BME280;28752;48.266;7.402;2022-10-16T11:33:27;99522.59;;;22.21;70.91
43147;BME280;28752;48.266;7.402;2022-10-16T11:36:26;99538.84;;;22.39;70.58
43147;BME280;28752;48.266;7.402;2022-10-16T11:41:44;99531.34;;;22.66;69.81
43147;BME280;28752;48.266;7.402;2022-10-16T11:47:26;99536.91;;;22.90;67.58
43147;BME280;28752;48.266;7.402;2022-10-16T11:49:57;99529.94;;;23.01;67.02
43147;BME280;28752;48.266;7.402;2022-10-16T11:52:36;99529.66;;;23.09;65.56
43147;BME280;28752;48.266;7.402;2022-10-16T11:57:33;99525.09;;;23.28;62.27
43147;BME280;28752;48.266;7.402;2022-10-16T12:02:50;99514.34;;;23.21;60.83
43147;BME280;28752;48.266;7.402;2022-10-16T12:05:49;99528.81;;;23.09;60.91
43147;BME280;28752;48.266;7.402;2022-10-16T12:08:14;99523.81;;;23.12;59.96
43147;BME280;28752;48.266;7.402;2022-10-16T12:10:44;99521.75;;;23.07;59.84
43147;BME280;28752;48.266;7.402;2022-10-16T12:13:30;99513.75;;;23.19;59.35
43147;BME280;28752;48.266;7.402;2022-10-16T12:18:37;99506.38;;;23.45;59.72
43147;BME280;28752;48.266;7.402;2022-10-16T12:21:03;99507.13;;;23.52;58.66
43147;BME280;28752;48.266;7.402;2022-10-16T12:23:36;99499.59;;;23.54;58.59
43147;BME280;28752;48.266;7.402;2022-10-16T12:26:03;99491.34;;;23.49;58.42
43147;BME280;28752;48.266;7.402;2022-10-16T12:28:31;99494.13;;;23.42;58.74
43147;BME280;28752;48.266;7.402;2022-10-16T12:31:00;99490.78;;;23.29;58.92
43147;BME280;28752;48.266;7.402;2022-10-16T12:33:55;99484.28;;;23.18;57.84
43147;BME280;28752;48.266;7.402;2022-10-16T12:36:32;99486.28;;;23.22;57.94
43147;BME280;28752;48.266;7.402;2022-10-16T12:38:59;99490.19;;;23.27;57.50
43147;BME280;28752;48.266;7.402;2022-10-16T12:41:28;99482.31;;;23.06;58.53
43147;BME280;28752;48.266;7.402;2022-10-16T12:43:54;99486.47;;;23.09;57.48
43147;BME280;28752;48.266;7.402;2022-10-16T12:51:39;99482.56;;;23.23;58.07
43147;BME280;28752;48.266;7.402;2022-10-16T12:54:17;99496.47;;;23.39;58.45
43147;BME280;28752;48.266;7.402;2022-10-16T12:57:03;99485.50;;;23.52;57.63
43147;BME280;28752;48.266;7.402;2022-10-16T12:59:38;99486.31;;;23.53;58.50
43147;BME280;28752;48.266;7.402;2022-10-16T13:05:13;99486.13;;;23.36;59.52
43147;BME280;28752;48.266;7.402;2022-10-16T13:10:30;99481.06;;;23.09;59.43
43147;BME280;28752;48.266;7.402;2022-10-16T13:26:26;99482.53;;;22.68;60.07
43147;BME280;28752;48.266;7.402;2022-10-16T13:28:45;99484.06;;;22.64;59.48
43147;BME280;28752;48.266;7.402;2022-10-16T13:31:21;99480.72;;;22.62;59.45
43147;BME280;28752;48.266;7.402;2022-10-16T13:33:51;99484.47;;;22.61;60.65
43147;BME280;28752;48.266;7.402;2022-10-16T13:36:33;99480.19;;;22.53;61.30
43147;BME280;28752;48.266;7.402;2022-10-16T13:44:46;99481.84;;;22.54;60.65
43147;BME280;28752;48.266;7.402;2022-10-16T13:47:23;99482.16;;;22.46;60.72
43147;BME280;28752;48.266;7.402;2022-10-16T13:50:04;99484.66;;;22.41;60.74
43147;BME280;28752;48.266;7.402;2022-10-16T13:52:31;99475.69;;;22.47;62.52
43147;BME280;28752;48.266;7.402;2022-10-16T13:54:56;99472.41;;;22.45;63.17
43147;BME280;28752;48.266;7.402;2022-10-16T13:57:25;99474.34;;;22.38;62.24
43147;BME280;28752;48.266;7.402;2022-10-16T13:59:51;99478.09;;;22.37;64.43
43147;BME280;28752;48.266;7.402;2022-10-16T14:02:33;99487.66;;;22.32;64.34
43147;BME280;28752;48.266;7.402;2022-10-16T14:05:01;99488.31;;;22.28;65.51
43147;BME280;28752;48.266;7.402;2022-10-16T14:07:32;99496.00;;;22.24;63.35
43147;BME280;28752;48.266;7.402;2022-10-16T14:10:03;99492.03;;;22.33;63.82
43147;BME280;28752;48.266;7.402;2022-10-16T14:12:29;99495.09;;;22.30;63.59
43147;BME280;28752;48.266;7.402;2022-10-16T14:14:57;99492.63;;;22.29;62.65
43147;BME280;28752;48.266;7.402;2022-10-16T14:17:35;99489.31;;;22.33;63.93
43147;BME280;28752;48.266;7.402;2022-10-16T14:20:04;99481.25;;;22.27;64.06
43147;BME280;28752;48.266;7.402;2022-10-16T14:24:58;99498.00;;;22.35;64.50
43147;BME280;28752;48.266;7.402;2022-10-16T14:27:35;99498.59;;;22.38;63.87
43147;BME280;28752;48.266;7.402;2022-10-16T14:30:18;99505.44;;;22.40;63.84
43147;BME280;28752;48.266;7.402;2022-10-16T14:32:57;99500.94;;;22.34;63.49
43147;BME280;28752;48.266;7.402;2022-10-16T14:35:35;99507.59;;;22.31;64.06
43147;BME280;28752;48.266;7.402;2022-10-16T14:38:03;99505.06;;;22.30;64.67
43147;BME280;28752;48.266;7.402;2022-10-16T14:40:31;99500.50;;;22.30;64.57
43147;BME280;28752;48.266;7.402;2022-10-16T14:42:58;99507.78;;;22.30;65.08
43147;BME280;28752;48.266;7.402;2022-10-16T14:45:27;99504.06;;;22.31;65.31
43147;BME280;28752;48.266;7.402;2022-10-16T14:48:01;99493.91;;;22.26;65.81
43147;BME280;28752;48.266;7.402;2022-10-16T14:50:27;99495.19;;;22.24;65.12
43147;BME280;28752;48.266;7.402;2022-10-16T14:52:53;99492.03;;;22.27;65.51
43147;BME280;28752;48.266;7.402;2022-10-16T14:55:19;99489.94;;;22.29;66.87
43147;BME280;28752;48.266;7.402;2022-10-16T14:57:45;99493.47;;;22.29;67.12